METAR AND TAF INFORMATION
METAR FOR LRCK
ADDS - METARS form results

(0055 UTC 17 January 2022)
Data provider http://aviationweather.gov/metar/data/
 
METAR text: LRCK 170030Z 23008KT CAVOK M04/M06 Q1020 NOSIG
Conditions at: LRCK (KOGALNICEANU , RO) observed 0030 UTC 17 January 2022
Temperature: -4.0°C (25°F)
Dewpoint: -6.0°C (21°F) [RH = 86%]
Pressure (altimeter): 30.12 inches Hg (1020.0 mb)
Winds: from the SW (230 degrees) at 9 MPH (8 knots; 4.1 m/s)
Visibility: 6 or more miles (10+ km)
Ceiling: ceiling and visibility are OK
Clouds: unknown
Weather: no significant weather observed at this time

METAR text: LRCK 170000Z 22008KT CAVOK M05/M06 Q1020 NOSIG
Conditions at: LRCK (KOGALNICEANU , RO) observed 0000 UTC 17 January 2022
Temperature: -5.0°C (23°F)
Dewpoint: -6.0°C (21°F) [RH = 93%]
Pressure (altimeter): 30.12 inches Hg (1020.0 mb)
Winds: from the SW (220 degrees) at 9 MPH (8 knots; 4.1 m/s)
Visibility: 6 or more miles (10+ km)
Ceiling: ceiling and visibility are OK
Clouds: unknown
Weather: no significant weather observed at this time

Forecast for: LRCK (KOGALNICEANU , RO)
Text: TAF LRCK 161700Z 1618/1718 20008KT CAVOK
Forecast period: 1800 UTC 16 January 2022 to 0500 UTC 17 January 2022
Forecast type: FROM: standard forecast or significant change
Winds: from the SSW (200 degrees) at 9 MPH (8 knots; 4.1 m/s)
Visibility: 6 or more miles (10+ km)
Ceiling: unknown
Clouds: missing
Weather: NSW  (no significant weather)
Text: BECMG 1705/1708 27016KT
Forecast period: 0500 to 1500 UTC 17 January 2022
Forecast type: BECOMING: Conditions expected to become as follows by 0800 UTC 17 January 2022
Winds: from the W (270 degrees) at 18 MPH (16 knots; 8.2 m/s)
Visibility: 6 or more miles (10+ km)
Ceiling: unknown
Clouds: missing
Weather: NSW  (no significant weather)
Text: BECMG 1715/1717 27026KT
Forecast period: 1500 to 1800 UTC 17 January 2022
Forecast type: BECOMING: Conditions expected to become as follows by 1700 UTC 17 January 2022
Winds: from the W (270 degrees) at 30 MPH (26 knots; 13.4 m/s)
Visibility: 6 or more miles (10+ km)
Ceiling: unknown
Clouds: missing
Weather: NSW  (no significant weather)

 AIRPORT MAP

 RUNWAY INFORMATION
Runway 18 Runway length 11483 ft Runway width 148 ft
Runway elevation 353 ft Runway displaced threshold 3270 ft Runway heading 186
Runway 36 Runway length 11483 ft Runway width 148 ft
Runway elevation 315 ft Runway displaced threshold 4990 ft Runway heading 6

 AIRPORT FREQUENCIES
Type APP Name BUCURESTI Frequency 122.9 MHZ
Type ATIS Name ATIS Frequency 118.75 MHZ
Type TWR Name TWR Frequency 120.45 MHZ

 AIRPORT NEAR NAVIGATION AIDS
Type VOR-DME Name Constanta Frequency 112700 KHZ



Powered by Virtual Airlines Manager [v2.6.2]